sensor_id;sensor_type;location;lat;lon;timestamp;P1;durP1;ratioP1;P2;durP2;ratioP2
27039;SDS011;14589;51.578;7.306;2023-08-01T00:01:51;0.60;;;0.38;;
27039;SDS011;14589;51.578;7.306;2023-08-01T00:04:21;1.00;;;0.45;;
27039;SDS011;14589;51.578;7.306;2023-08-01T00:06:51;0.77;;;0.32;;
27039;SDS011;14589;51.578;7.306;2023-08-01T00:09:22;1.17;;;0.30;;
27039;SDS011;14589;51.578;7.306;2023-08-01T00:11:52;0.98;;;0.30;;
27039;SDS011;14589;51.578;7.306;2023-08-01T00:14:23;0.60;;;0.28;;
27039;SDS011;14589;51.578;7.306;2023-08-01T00:16:54;1.00;;;1.00;;
27039;SDS011;14589;51.578;7.306;2023-08-01T00:19:24;0.80;;;0.32;;
27039;SDS011;14589;51.578;7.306;2023-08-01T00:21:55;1.00;;;0.20;;
27039;SDS011;14589;51.578;7.306;2023-08-01T00:24:25;0.70;;;0.35;;
27039;SDS011;14589;51.578;7.306;2023-08-01T00:26:55;0.52;;;0.30;;
27039;SDS011;14589;51.578;7.306;2023-08-01T00:29:26;0.63;;;0.30;;
27039;SDS011;14589;51.578;7.306;2023-08-01T00:31:56;1.00;;;0.28;;
27039;SDS011;14589;51.578;7.306;2023-08-01T00:34:26;1.23;;;0.85;;
27039;SDS011;14589;51.578;7.306;2023-08-01T00:36:57;0.68;;;0.28;;
27039;SDS011;14589;51.578;7.306;2023-08-01T00:39:28;0.68;;;0.30;;
27039;SDS011;14589;51.578;7.306;2023-08-01T00:41:59;1.13;;;0.68;;
27039;SDS011;14589;51.578;7.306;2023-08-01T00:44:29;0.75;;;0.20;;
27039;SDS011;14589;51.578;7.306;2023-08-01T00:47:00;0.73;;;0.35;;
27039;SDS011;14589;51.578;7.306;2023-08-01T00:49:30;0.82;;;0.73;;
27039;SDS011;14589;51.578;7.306;2023-08-01T00:52:01;1.27;;;0.98;;
27039;SDS011;14589;51.578;7.306;2023-08-01T00:54:32;0.55;;;0.20;;
27039;SDS011;14589;51.578;7.306;2023-08-01T00:57:06;0.60;;;0.22;;
27039;SDS011;14589;51.578;7.306;2023-08-01T00:59:37;0.98;;;0.93;;
27039;SDS011;14589;51.578;7.306;2023-08-01T01:02:07;0.77;;;0.45;;
27039;SDS011;14589;51.578;7.306;2023-08-01T01:04:38;0.50;;;0.35;;
27039;SDS011;14589;51.578;7.306;2023-08-01T01:07:08;0.77;;;0.10;;
27039;SDS011;14589;51.578;7.306;2023-08-01T01:09:39;0.73;;;0.20;;
27039;SDS011;14589;51.578;7.306;2023-08-01T01:12:09;0.32;;;0.00;;
27039;SDS011;14589;51.578;7.306;2023-08-01T01:14:40;0.40;;;0.20;;
27039;SDS011;14589;51.578;7.306;2023-08-01T01:17:10;1.17;;;0.82;;
27039;SDS011;14589;51.578;7.306;2023-08-01T01:24:43;1.10;;;0.30;;
27039;SDS011;14589;51.578;7.306;2023-08-01T01:27:15;0.25;;;0.10;;
27039;SDS011;14589;51.578;7.306;2023-08-01T01:29:47;1.55;;;0.60;;
27039;SDS011;14589;51.578;7.306;2023-08-01T01:32:20;0.93;;;0.50;;
27039;SDS011;14589;51.578;7.306;2023-08-01T01:34:50;0.95;;;0.40;;
27039;SDS011;14589;51.578;7.306;2023-08-01T01:37:20;0.60;;;0.30;;
27039;SDS011;14589;51.578;7.306;2023-08-01T01:39:51;0.68;;;0.50;;
27039;SDS011;14589;51.578;7.306;2023-08-01T01:42:21;0.50;;;0.10;;
27039;SDS011;14589;51.578;7.306;2023-08-01T01:44:51;1.02;;;0.10;;
27039;SDS011;14589;51.578;7.306;2023-08-01T01:47:22;1.17;;;0.25;;
27039;SDS011;14589;51.578;7.306;2023-08-01T01:49:52;2.08;;;0.28;;
27039;SDS011;14589;51.578;7.306;2023-08-01T01:52:22;1.08;;;0.68;;
27039;SDS011;14589;51.578;7.306;2023-08-01T01:54:53;0.98;;;0.35;;
27039;SDS011;14589;51.578;7.306;2023-08-01T01:57:24;1.42;;;1.33;;
27039;SDS011;14589;51.578;7.306;2023-08-01T01:59:54;1.17;;;0.38;;
27039;SDS011;14589;51.578;7.306;2023-08-01T02:02:24;1.45;;;0.52;;
27039;SDS011;14589;51.578;7.306;2023-08-01T02:04:56;1.25;;;0.40;;
27039;SDS011;14589;51.578;7.306;2023-08-01T02:07:26;1.40;;;0.60;;
27039;SDS011;14589;51.578;7.306;2023-08-01T02:09:57;1.00;;;0.30;;
27039;SDS011;14589;51.578;7.306;2023-08-01T02:12:27;1.60;;;0.47;;
27039;SDS011;14589;51.578;7.306;2023-08-01T02:15:01;2.13;;;0.93;;
27039;SDS011;14589;51.578;7.306;2023-08-01T02:17:32;1.25;;;0.82;;
27039;SDS011;14589;51.578;7.306;2023-08-01T02:20:02;1.42;;;0.50;;
27039;SDS011;14589;51.578;7.306;2023-08-01T02:22:33;1.33;;;0.40;;
27039;SDS011;14589;51.578;7.306;2023-08-01T02:25:05;1.45;;;0.30;;
27039;SDS011;14589;51.578;7.306;2023-08-01T02:27:35;2.15;;;0.40;;
27039;SDS011;14589;51.578;7.306;2023-08-01T02:30:06;1.10;;;0.50;;
27039;SDS011;14589;51.578;7.306;2023-08-01T02:32:36;1.77;;;0.88;;
27039;SDS011;14589;51.578;7.306;2023-08-01T02:35:07;1.48;;;1.38;;
27039;SDS011;14589;51.578;7.306;2023-08-01T02:37:37;0.98;;;0.57;;
27039;SDS011;14589;51.578;7.306;2023-08-01T02:40:08;2.22;;;0.32;;
27039;SDS011;14589;51.578;7.306;2023-08-01T02:42:39;0.98;;;0.20;;
27039;SDS011;14589;51.578;7.306;2023-08-01T02:45:09;1.17;;;0.45;;
27039;SDS011;14589;51.578;7.306;2023-08-01T02:47:39;1.45;;;0.70;;
27039;SDS011;14589;51.578;7.306;2023-08-01T02:50:10;2.00;;;1.00;;
27039;SDS011;14589;51.578;7.306;2023-08-01T02:52:40;3.05;;;0.70;;
27039;SDS011;14589;51.578;7.306;2023-08-01T02:55:10;2.65;;;0.95;;
27039;SDS011;14589;51.578;7.306;2023-08-01T02:57:41;2.17;;;1.33;;
27039;SDS011;14589;51.578;7.306;2023-08-01T03:00:11;3.85;;;2.10;;
27039;SDS011;14589;51.578;7.306;2023-08-01T03:02:42;5.53;;;1.23;;
27039;SDS011;14589;51.578;7.306;2023-08-01T03:05:12;3.05;;;1.65;;
27039;SDS011;14589;51.578;7.306;2023-08-01T03:07:43;5.63;;;2.35;;
27039;SDS011;14589;51.578;7.306;2023-08-01T03:10:13;9.98;;;3.60;;
27039;SDS011;14589;51.578;7.306;2023-08-01T03:12:44;6.93;;;3.95;;
27039;SDS011;14589;51.578;7.306;2023-08-01T03:15:15;5.35;;;2.58;;
27039;SDS011;14589;51.578;7.306;2023-08-01T03:17:46;8.18;;;4.85;;
27039;SDS011;14589;51.578;7.306;2023-08-01T03:20:16;10.65;;;6.18;;
27039;SDS011;14589;51.578;7.306;2023-08-01T03:22:47;10.45;;;6.63;;
27039;SDS011;14589;51.578;7.306;2023-08-01T03:25:18;6.82;;;4.43;;
27039;SDS011;14589;51.578;7.306;2023-08-01T03:27:48;6.90;;;4.22;;
27039;SDS011;14589;51.578;7.306;2023-08-01T03:30:19;8.55;;;3.97;;
27039;SDS011;14589;51.578;7.306;2023-08-01T03:32:51;8.80;;;4.97;;
27039;SDS011;14589;51.578;7.306;2023-08-01T03:35:21;8.13;;;5.25;;
27039;SDS011;14589;51.578;7.306;2023-08-01T03:37:51;6.95;;;3.90;;
27039;SDS011;14589;51.578;7.306;2023-08-01T03:40:22;12.45;;;6.43;;
27039;SDS011;14589;51.578;7.306;2023-08-01T03:42:53;8.85;;;5.68;;
27039;SDS011;14589;51.578;7.306;2023-08-01T03:45:23;7.25;;;4.80;;
27039;SDS011;14589;51.578;7.306;2023-08-01T03:47:54;7.13;;;5.00;;
27039;SDS011;14589;51.578;7.306;2023-08-01T03:50:25;7.38;;;4.32;;
27039;SDS011;14589;51.578;7.306;2023-08-01T03:52:55;11.30;;;5.82;;
27039;SDS011;14589;51.578;7.306;2023-08-01T03:55:26;11.27;;;6.35;;
27039;SDS011;14589;51.578;7.306;2023-08-01T03:57:56;13.60;;;6.18;;
27039;SDS011;14589;51.578;7.306;2023-08-01T04:00:27;11.35;;;7.93;;
27039;SDS011;14589;51.578;7.306;2023-08-01T04:03:02;9.45;;;5.43;;
27039;SDS011;14589;51.578;7.306;2023-08-01T04:05:33;17.70;;;7.55;;
27039;SDS011;14589;51.578;7.306;2023-08-01T04:08:03;10.50;;;5.93;;
27039;SDS011;14589;51.578;7.306;2023-08-01T04:10:33;10.88;;;6.00;;
27039;SDS011;14589;51.578;7.306;2023-08-01T04:13:04;13.88;;;7.15;;
27039;SDS011;14589;51.578;7.306;2023-08-01T04:15:34;10.10;;;6.68;;
27039;SDS011;14589;51.578;7.306;2023-08-01T04:18:05;16.50;;;8.60;;
27039;SDS011;14589;51.578;7.306;2023-08-01T04:20:35;12.55;;;7.38;;
27039;SDS011;14589;51.578;7.306;2023-08-01T04:23:05;10.43;;;6.30;;
27039;SDS011;14589;51.578;7.306;2023-08-01T04:25:36;12.82;;;6.78;;
27039;SDS011;14589;51.578;7.306;2023-08-01T04:28:06;13.95;;;7.03;;
27039;SDS011;14589;51.578;7.306;2023-08-01T04:30:36;15.68;;;7.97;;
27039;SDS011;14589;51.578;7.306;2023-08-01T04:33:08;13.18;;;5.63;;
27039;SDS011;14589;51.578;7.306;2023-08-01T04:35:38;13.02;;;7.20;;
27039;SDS011;14589;51.578;7.306;2023-08-01T04:38:09;13.18;;;7.03;;
27039;SDS011;14589;51.578;7.306;2023-08-01T04:40:40;11.25;;;6.68;;
27039;SDS011;14589;51.578;7.306;2023-08-01T04:43:11;12.00;;;4.10;;
27039;SDS011;14589;51.578;7.306;2023-08-01T04:45:42;6.90;;;4.10;;
27039;SDS011;14589;51.578;7.306;2023-08-01T04:48:12;13.40;;;5.97;;
27039;SDS011;14589;51.578;7.306;2023-08-01T04:50:42;13.35;;;7.13;;
27039;SDS011;14589;51.578;7.306;2023-08-01T04:53:14;10.45;;;5.47;;
27039;SDS011;14589;51.578;7.306;2023-08-01T04:55:44;14.77;;;7.40;;
27039;SDS011;14589;51.578;7.306;2023-08-01T04:58:15;11.40;;;6.75;;
27039;SDS011;14589;51.578;7.306;2023-08-01T05:00:45;9.90;;;6.22;;
27039;SDS011;14589;51.578;7.306;2023-08-01T05:03:15;11.38;;;7.22;;
27039;SDS011;14589;51.578;7.306;2023-08-01T05:05:46;12.15;;;6.53;;
27039;SDS011;14589;51.578;7.306;2023-08-01T05:08:16;14.25;;;6.53;;
27039;SDS011;14589;51.578;7.306;2023-08-01T05:10:46;9.95;;;6.13;;
27039;SDS011;14589;51.578;7.306;2023-08-01T05:13:18;16.08;;;7.03;;
27039;SDS011;14589;51.578;7.306;2023-08-01T05:15:48;15.60;;;9.45;;
27039;SDS011;14589;51.578;7.306;2023-08-01T05:18:19;15.73;;;9.20;;
27039;SDS011;14589;51.578;7.306;2023-08-01T05:20:49;12.60;;;6.32;;
27039;SDS011;14589;51.578;7.306;2023-08-01T05:23:19;16.35;;;8.35;;
27039;SDS011;14589;51.578;7.306;2023-08-01T05:25:50;15.20;;;7.85;;
27039;SDS011;14589;51.578;7.306;2023-08-01T05:28:20;12.52;;;7.75;;
27039;SDS011;14589;51.578;7.306;2023-08-01T05:30:51;15.60;;;8.43;;
27039;SDS011;14589;51.578;7.306;2023-08-01T05:33:21;16.00;;;7.88;;
27039;SDS011;14589;51.578;7.306;2023-08-01T05:35:52;19.77;;;7.95;;
27039;SDS011;14589;51.578;7.306;2023-08-01T05:38:22;15.52;;;6.38;;
27039;SDS011;14589;51.578;7.306;2023-08-01T05:40:52;17.00;;;8.05;;
27039;SDS011;14589;51.578;7.306;2023-08-01T05:43:23;13.40;;;8.02;;
27039;SDS011;14589;51.578;7.306;2023-08-01T05:45:53;12.45;;;7.60;;
27039;SDS011;14589;51.578;7.306;2023-08-01T05:48:23;16.60;;;8.00;;
27039;SDS011;14589;51.578;7.306;2023-08-01T05:50:54;13.43;;;7.93;;
27039;SDS011;14589;51.578;7.306;2023-08-01T05:53:25;18.65;;;7.30;;
27039;SDS011;14589;51.578;7.306;2023-08-01T05:55:57;14.77;;;8.35;;
27039;SDS011;14589;51.578;7.306;2023-08-01T05:58:27;12.60;;;6.90;;
27039;SDS011;14589;51.578;7.306;2023-08-01T06:00:58;10.05;;;6.05;;
27039;SDS011;14589;51.578;7.306;2023-08-01T06:03:28;14.90;;;7.20;;
27039;SDS011;14589;51.578;7.306;2023-08-01T06:05:58;13.60;;;7.10;;
27039;SDS011;14589;51.578;7.306;2023-08-01T06:08:29;11.68;;;6.68;;
27039;SDS011;14589;51.578;7.306;2023-08-01T06:10:59;14.02;;;7.85;;
27039;SDS011;14589;51.578;7.306;2023-08-01T06:13:30;12.63;;;7.68;;
27039;SDS011;14589;51.578;7.306;2023-08-01T06:16:00;13.75;;;7.50;;
27039;SDS011;14589;51.578;7.306;2023-08-01T06:18:31;14.88;;;6.47;;
27039;SDS011;14589;51.578;7.306;2023-08-01T06:21:01;13.80;;;7.65;;
27039;SDS011;14589;51.578;7.306;2023-08-01T06:23:32;14.48;;;8.05;;
27039;SDS011;14589;51.578;7.306;2023-08-01T06:26:02;15.02;;;8.38;;
27039;SDS011;14589;51.578;7.306;2023-08-01T06:28:33;16.38;;;7.65;;
27039;SDS011;14589;51.578;7.306;2023-08-01T06:31:03;20.08;;;8.68;;
27039;SDS011;14589;51.578;7.306;2023-08-01T06:33:33;17.55;;;9.02;;
27039;SDS011;14589;51.578;7.306;2023-08-01T06:36:04;12.88;;;7.88;;
27039;SDS011;14589;51.578;7.306;2023-08-01T06:38:35;16.85;;;7.90;;
27039;SDS011;14589;51.578;7.306;2023-08-01T06:41:05;15.48;;;8.88;;
27039;SDS011;14589;51.578;7.306;2023-08-01T06:43:36;13.60;;;7.43;;
27039;SDS011;14589;51.578;7.306;2023-08-01T06:46:09;14.55;;;8.60;;
27039;SDS011;14589;51.578;7.306;2023-08-01T06:48:39;19.85;;;9.23;;
27039;SDS011;14589;51.578;7.306;2023-08-01T06:51:10;14.48;;;7.60;;
27039;SDS011;14589;51.578;7.306;2023-08-01T06:53:41;19.10;;;8.73;;
27039;SDS011;14589;51.578;7.306;2023-08-01T06:56:11;16.48;;;7.95;;
27039;SDS011;14589;51.578;7.306;2023-08-01T06:58:42;14.88;;;8.60;;
27039;SDS011;14589;51.578;7.306;2023-08-01T07:01:12;13.88;;;7.20;;
27039;SDS011;14589;51.578;7.306;2023-08-01T07:03:42;19.38;;;9.18;;
27039;SDS011;14589;51.578;7.306;2023-08-01T07:06:13;12.93;;;7.57;;
27039;SDS011;14589;51.578;7.306;2023-08-01T07:08:43;17.02;;;9.52;;
27039;SDS011;14589;51.578;7.306;2023-08-01T07:11:13;15.18;;;7.88;;
27039;SDS011;14589;51.578;7.306;2023-08-01T07:13:44;17.48;;;7.65;;
27039;SDS011;14589;51.578;7.306;2023-08-01T07:16:14;17.58;;;8.23;;
27039;SDS011;14589;51.578;7.306;2023-08-01T07:18:45;12.82;;;7.10;;
27039;SDS011;14589;51.578;7.306;2023-08-01T07:21:16;10.60;;;6.22;;
27039;SDS011;14589;51.578;7.306;2023-08-01T07:23:47;17.23;;;8.00;;
27039;SDS011;14589;51.578;7.306;2023-08-01T07:26:18;13.60;;;7.55;;
27039;SDS011;14589;51.578;7.306;2023-08-01T07:28:48;17.17;;;7.57;;
27039;SDS011;14589;51.578;7.306;2023-08-01T07:31:19;12.20;;;7.20;;
27039;SDS011;14589;51.578;7.306;2023-08-01T07:33:49;15.15;;;7.35;;
27039;SDS011;14589;51.578;7.306;2023-08-01T07:36:19;10.57;;;6.25;;
27039;SDS011;14589;51.578;7.306;2023-08-01T07:38:52;16.15;;;8.65;;
27039;SDS011;14589;51.578;7.306;2023-08-01T07:41:23;14.45;;;7.47;;
27039;SDS011;14589;51.578;7.306;2023-08-01T07:43:53;12.65;;;6.82;;
27039;SDS011;14589;51.578;7.306;2023-08-01T07:46:24;14.45;;;7.80;;
27039;SDS011;14589;51.578;7.306;2023-08-01T07:48:54;9.40;;;6.35;;
27039;SDS011;14589;51.578;7.306;2023-08-01T07:51:25;12.48;;;7.43;;
27039;SDS011;14589;51.578;7.306;2023-08-01T07:53:56;12.98;;;8.95;;
27039;SDS011;14589;51.578;7.306;2023-08-01T07:56:27;11.23;;;5.65;;
27039;SDS011;14589;51.578;7.306;2023-08-01T07:58:57;9.68;;;5.32;;
27039;SDS011;14589;51.578;7.306;2023-08-01T08:01:27;9.38;;;5.55;;
27039;SDS011;14589;51.578;7.306;2023-08-01T08:03:58;14.73;;;6.25;;
27039;SDS011;14589;51.578;7.306;2023-08-01T08:06:28;11.60;;;8.10;;
27039;SDS011;14589;51.578;7.306;2023-08-01T08:08:58;8.32;;;4.88;;
27039;SDS011;14589;51.578;7.306;2023-08-01T08:11:29;10.60;;;5.40;;
27039;SDS011;14589;51.578;7.306;2023-08-01T08:13:59;10.75;;;5.28;;
27039;SDS011;14589;51.578;7.306;2023-08-01T08:16:30;7.88;;;4.28;;
27039;SDS011;14589;51.578;7.306;2023-08-01T08:19:00;11.00;;;5.20;;
27039;SDS011;14589;51.578;7.306;2023-08-01T08:21:31;7.78;;;4.93;;
27039;SDS011;14589;51.578;7.306;2023-08-01T08:24:01;9.48;;;4.68;;
27039;SDS011;14589;51.578;7.306;2023-08-01T08:26:31;7.55;;;4.85;;
27039;SDS011;14589;51.578;7.306;2023-08-01T08:29:04;8.07;;;5.40;;
27039;SDS011;14589;51.578;7.306;2023-08-01T08:31:37;9.13;;;4.30;;
27039;SDS011;14589;51.578;7.306;2023-08-01T08:34:07;7.10;;;3.55;;
27039;SDS011;14589;51.578;7.306;2023-08-01T08:36:38;9.18;;;4.45;;
27039;SDS011;14589;51.578;7.306;2023-08-01T08:39:08;9.80;;;3.83;;
27039;SDS011;14589;51.578;7.306;2023-08-01T08:41:39;8.75;;;4.95;;
27039;SDS011;14589;51.578;7.306;2023-08-01T08:44:16;5.88;;;3.63;;
27039;SDS011;14589;51.578;7.306;2023-08-01T08:46:53;5.65;;;3.25;;
27039;SDS011;14589;51.578;7.306;2023-08-01T08:49:24;7.57;;;3.17;;
27039;SDS011;14589;51.578;7.306;2023-08-01T08:51:56;6.80;;;3.17;;
27039;SDS011;14589;51.578;7.306;2023-08-01T08:54:27;6.60;;;3.38;;
27039;SDS011;14589;51.578;7.306;2023-08-01T08:56:58;5.95;;;3.30;;
27039;SDS011;14589;51.578;7.306;2023-08-01T08:59:29;7.55;;;3.13;;
27039;SDS011;14589;51.578;7.306;2023-08-01T09:02:01;7.13;;;2.33;;
27039;SDS011;14589;51.578;7.306;2023-08-01T09:04:33;5.88;;;2.70;;
27039;SDS011;14589;51.578;7.306;2023-08-01T09:07:06;7.95;;;3.22;;
27039;SDS011;14589;51.578;7.306;2023-08-01T09:09:39;5.60;;;3.40;;
27039;SDS011;14589;51.578;7.306;2023-08-01T09:12:09;5.85;;;2.53;;
27039;SDS011;14589;51.578;7.306;2023-08-01T09:14:39;5.30;;;3.10;;
27039;SDS011;14589;51.578;7.306;2023-08-01T09:17:11;5.30;;;2.80;;
27039;SDS011;14589;51.578;7.306;2023-08-01T09:19:41;4.47;;;3.40;;
27039;SDS011;14589;51.578;7.306;2023-08-01T09:22:12;5.28;;;2.45;;
27039;SDS011;14589;51.578;7.306;2023-08-01T09:24:50;7.07;;;3.72;;
27039;SDS011;14589;51.578;7.306;2023-08-01T09:27:21;5.05;;;2.85;;
27039;SDS011;14589;51.578;7.306;2023-08-01T09:30:04;5.53;;;2.45;;
27039;SDS011;14589;51.578;7.306;2023-08-01T09:32:35;6.13;;;2.58;;
27039;SDS011;14589;51.578;7.306;2023-08-01T09:35:05;8.88;;;3.65;;
27039;SDS011;14589;51.578;7.306;2023-08-01T09:37:40;7.72;;;2.58;;
27039;SDS011;14589;51.578;7.306;2023-08-01T09:40:11;6.28;;;3.05;;
27039;SDS011;14589;51.578;7.306;2023-08-01T09:42:42;4.18;;;2.50;;
27039;SDS011;14589;51.578;7.306;2023-08-01T09:47:45;5.95;;;2.50;;
27039;SDS011;14589;51.578;7.306;2023-08-01T09:50:22;5.45;;;2.53;;
27039;SDS011;14589;51.578;7.306;2023-08-01T09:52:54;5.00;;;2.30;;
27039;SDS011;14589;51.578;7.306;2023-08-01T09:55:31;6.13;;;2.65;;
27039;SDS011;14589;51.578;7.306;2023-08-01T09:58:02;5.43;;;2.47;;
27039;SDS011;14589;51.578;7.306;2023-08-01T10:00:38;5.50;;;2.60;;
27039;SDS011;14589;51.578;7.306;2023-08-01T10:03:09;6.05;;;1.83;;
27039;SDS011;14589;51.578;7.306;2023-08-01T10:05:39;4.10;;;2.15;;
27039;SDS011;14589;51.578;7.306;2023-08-01T10:10:42;3.50;;;2.72;;
27039;SDS011;14589;51.578;7.306;2023-08-01T10:13:13;3.60;;;1.65;;
27039;SDS011;14589;51.578;7.306;2023-08-01T10:15:44;4.90;;;2.13;;
27039;SDS011;14589;51.578;7.306;2023-08-01T10:18:15;3.70;;;1.83;;
27039;SDS011;14589;51.578;7.306;2023-08-01T10:20:46;2.85;;;0.68;;
27039;SDS011;14589;51.578;7.306;2023-08-01T10:23:18;5.00;;;1.85;;
27039;SDS011;14589;51.578;7.306;2023-08-01T10:25:49;3.55;;;1.67;;
27039;SDS011;14589;51.578;7.306;2023-08-01T10:28:30;6.13;;;2.53;;
27039;SDS011;14589;51.578;7.306;2023-08-01T10:31:14;3.30;;;1.90;;
27039;SDS011;14589;51.578;7.306;2023-08-01T10:33:46;7.07;;;2.97;;
27039;SDS011;14589;51.578;7.306;2023-08-01T10:38:57;6.05;;;2.47;;
27039;SDS011;14589;51.578;7.306;2023-08-01T10:44:10;4.15;;;2.95;;
27039;SDS011;14589;51.578;7.306;2023-08-01T10:46:45;7.35;;;2.63;;
27039;SDS011;14589;51.578;7.306;2023-08-01T10:49:19;7.25;;;3.15;;
27039;SDS011;14589;51.578;7.306;2023-08-01T10:51:51;4.80;;;2.40;;
27039;SDS011;14589;51.578;7.306;2023-08-01T10:54:22;7.22;;;2.90;;
27039;SDS011;14589;51.578;7.306;2023-08-01T10:56:56;7.15;;;2.75;;
27039;SDS011;14589;51.578;7.306;2023-08-01T10:59:30;4.85;;;3.42;;
27039;SDS011;14589;51.578;7.306;2023-08-01T11:02:01;6.70;;;3.20;;
27039;SDS011;14589;51.578;7.306;2023-08-01T11:04:31;4.40;;;3.10;;
27039;SDS011;14589;51.578;7.306;2023-08-01T11:07:03;9.27;;;2.35;;
27039;SDS011;14589;51.578;7.306;2023-08-01T11:09:34;5.00;;;2.20;;
27039;SDS011;14589;51.578;7.306;2023-08-01T11:12:05;2.92;;;1.88;;
27039;SDS011;14589;51.578;7.306;2023-08-01T11:14:35;8.88;;;1.45;;
27039;SDS011;14589;51.578;7.306;2023-08-01T11:17:05;3.03;;;1.25;;
27039;SDS011;14589;51.578;7.306;2023-08-01T11:19:36;2.83;;;1.55;;
27039;SDS011;14589;51.578;7.306;2023-08-01T11:22:08;8.02;;;1.52;;
27039;SDS011;14589;51.578;7.306;2023-08-01T11:24:39;4.43;;;2.40;;
27039;SDS011;14589;51.578;7.306;2023-08-01T11:27:19;5.32;;;2.20;;
27039;SDS011;14589;51.578;7.306;2023-08-01T11:29:50;4.18;;;1.95;;
27039;SDS011;14589;51.578;7.306;2023-08-01T11:32:20;3.70;;;1.25;;
27039;SDS011;14589;51.578;7.306;2023-08-01T11:34:51;3.45;;;1.70;;
27039;SDS011;14589;51.578;7.306;2023-08-01T11:37:21;3.35;;;1.55;;
27039;SDS011;14589;51.578;7.306;2023-08-01T11:39:52;4.50;;;1.65;;
27039;SDS011;14589;51.578;7.306;2023-08-01T11:42:23;2.85;;;1.85;;
27039;SDS011;14589;51.578;7.306;2023-08-01T11:44:53;4.57;;;2.15;;
27039;SDS011;14589;51.578;7.306;2023-08-01T11:47:23;4.35;;;1.90;;
27039;SDS011;14589;51.578;7.306;2023-08-01T11:49:54;3.95;;;2.25;;
27039;SDS011;14589;51.578;7.306;2023-08-01T11:52:25;5.47;;;1.40;;
27039;SDS011;14589;51.578;7.306;2023-08-01T11:54:56;3.53;;;1.83;;
27039;SDS011;14589;51.578;7.306;2023-08-01T11:57:27;3.75;;;1.73;;
27039;SDS011;14589;51.578;7.306;2023-08-01T11:59:57;4.10;;;1.40;;
27039;SDS011;14589;51.578;7.306;2023-08-01T12:02:28;3.05;;;1.05;;
27039;SDS011;14589;51.578;7.306;2023-08-01T12:05:02;4.60;;;1.50;;
27039;SDS011;14589;51.578;7.306;2023-08-01T12:07:33;2.85;;;0.77;;
27039;SDS011;14589;51.578;7.306;2023-08-01T12:10:03;4.78;;;1.70;;
27039;SDS011;14589;51.578;7.306;2023-08-01T12:12:43;4.40;;;3.05;;
27039;SDS011;14589;51.578;7.306;2023-08-01T12:15:17;3.10;;;0.95;;
27039;SDS011;14589;51.578;7.306;2023-08-01T12:17:47;4.93;;;0.82;;
27039;SDS011;14589;51.578;7.306;2023-08-01T12:20:17;3.20;;;0.52;;
27039;SDS011;14589;51.578;7.306;2023-08-01T12:22:48;2.22;;;0.80;;
27039;SDS011;14589;51.578;7.306;2023-08-01T12:25:18;1.90;;;0.57;;
27039;SDS011;14589;51.578;7.306;2023-08-01T12:27:48;1.98;;;1.10;;
27039;SDS011;14589;51.578;7.306;2023-08-01T12:30:19;3.60;;;0.85;;
27039;SDS011;14589;51.578;7.306;2023-08-01T12:32:50;3.42;;;0.52;;
27039;SDS011;14589;51.578;7.306;2023-08-01T12:35:20;3.03;;;0.77;;
27039;SDS011;14589;51.578;7.306;2023-08-01T12:37:50;2.67;;;0.88;;
27039;SDS011;14589;51.578;7.306;2023-08-01T12:40:22;2.08;;;0.32;;
27039;SDS011;14589;51.578;7.306;2023-08-01T12:42:52;2.47;;;1.13;;
27039;SDS011;14589;51.578;7.306;2023-08-01T12:45:23;2.88;;;0.90;;
27039;SDS011;14589;51.578;7.306;2023-08-01T12:47:53;5.47;;;0.70;;
27039;SDS011;14589;51.578;7.306;2023-08-01T12:50:23;5.65;;;1.25;;
27039;SDS011;14589;51.578;7.306;2023-08-01T12:52:54;6.07;;;1.95;;
27039;SDS011;14589;51.578;7.306;2023-08-01T12:55:24;5.13;;;1.02;;
27039;SDS011;14589;51.578;7.306;2023-08-01T12:57:55;4.63;;;1.50;;
27039;SDS011;14589;51.578;7.306;2023-08-01T13:00:25;4.15;;;0.77;;
27039;SDS011;14589;51.578;7.306;2023-08-01T13:02:55;3.00;;;0.98;;
27039;SDS011;14589;51.578;7.306;2023-08-01T13:05:26;2.50;;;1.00;;
27039;SDS011;14589;51.578;7.306;2023-08-01T13:07:56;2.13;;;0.90;;
27039;SDS011;14589;51.578;7.306;2023-08-01T13:10:29;3.53;;;1.65;;
27039;SDS011;14589;51.578;7.306;2023-08-01T13:13:03;3.33;;;1.10;;
27039;SDS011;14589;51.578;7.306;2023-08-01T13:15:34;3.63;;;0.57;;
27039;SDS011;14589;51.578;7.306;2023-08-01T13:18:04;3.28;;;1.23;;
27039;SDS011;14589;51.578;7.306;2023-08-01T13:20:34;3.78;;;0.82;;
27039;SDS011;14589;51.578;7.306;2023-08-01T13:23:05;1.85;;;0.73;;
27039;SDS011;14589;51.578;7.306;2023-08-01T13:25:35;3.90;;;0.93;;
27039;SDS011;14589;51.578;7.306;2023-08-01T13:28:05;3.15;;;0.90;;
27039;SDS011;14589;51.578;7.306;2023-08-01T13:30:36;3.70;;;1.98;;
27039;SDS011;14589;51.578;7.306;2023-08-01T13:33:06;4.07;;;0.95;;
27039;SDS011;14589;51.578;7.306;2023-08-01T13:35:37;2.53;;;0.85;;
27039;SDS011;14589;51.578;7.306;2023-08-01T13:38:07;2.28;;;1.33;;
27039;SDS011;14589;51.578;7.306;2023-08-01T13:40:38;4.05;;;0.75;;
27039;SDS011;14589;51.578;7.306;2023-08-01T13:43:09;2.47;;;0.73;;
27039;SDS011;14589;51.578;7.306;2023-08-01T13:45:40;5.10;;;0.88;;
27039;SDS011;14589;51.578;7.306;2023-08-01T13:48:10;4.47;;;1.02;;
27039;SDS011;14589;51.578;7.306;2023-08-01T13:50:41;2.75;;;0.60;;
27039;SDS011;14589;51.578;7.306;2023-08-01T13:53:11;4.93;;;1.70;;
27039;SDS011;14589;51.578;7.306;2023-08-01T13:55:44;3.95;;;0.80;;
27039;SDS011;14589;51.578;7.306;2023-08-01T13:58:14;5.53;;;0.50;;
27039;SDS011;14589;51.578;7.306;2023-08-01T14:00:45;3.05;;;1.15;;
27039;SDS011;14589;51.578;7.306;2023-08-01T14:03:16;6.10;;;0.80;;
27039;SDS011;14589;51.578;7.306;2023-08-01T14:05:46;2.30;;;0.63;;
27039;SDS011;14589;51.578;7.306;2023-08-01T14:08:16;4.93;;;0.82;;
27039;SDS011;14589;51.578;7.306;2023-08-01T14:10:47;2.58;;;0.82;;
27039;SDS011;14589;51.578;7.306;2023-08-01T14:13:17;7.18;;;1.05;;
27039;SDS011;14589;51.578;7.306;2023-08-01T14:15:47;4.32;;;1.40;;
27039;SDS011;14589;51.578;7.306;2023-08-01T14:18:18;5.60;;;1.83;;
27039;SDS011;14589;51.578;7.306;2023-08-01T14:20:48;2.92;;;0.57;;
27039;SDS011;14589;51.578;7.306;2023-08-01T14:23:19;4.18;;;1.20;;
27039;SDS011;14589;51.578;7.306;2023-08-01T14:25:50;2.20;;;0.57;;
27039;SDS011;14589;51.578;7.306;2023-08-01T14:28:20;2.15;;;0.82;;
27039;SDS011;14589;51.578;7.306;2023-08-01T14:30:50;3.78;;;1.15;;
27039;SDS011;14589;51.578;7.306;2023-08-01T14:33:21;3.10;;;0.28;;
27039;SDS011;14589;51.578;7.306;2023-08-01T14:35:51;2.03;;;0.70;;
27039;SDS011;14589;51.578;7.306;2023-08-01T14:38:21;7.15;;;0.70;;
27039;SDS011;14589;51.578;7.306;2023-08-01T14:40:53;3.55;;;0.95;;
27039;SDS011;14589;51.578;7.306;2023-08-01T14:43:23;2.83;;;0.73;;
27039;SDS011;14589;51.578;7.306;2023-08-01T14:45:54;3.33;;;0.70;;
27039;SDS011;14589;51.578;7.306;2023-08-01T14:48:24;2.15;;;0.30;;
27039;SDS011;14589;51.578;7.306;2023-08-01T14:50:54;2.22;;;0.80;;
27039;SDS011;14589;51.578;7.306;2023-08-01T14:53:25;3.28;;;1.10;;
27039;SDS011;14589;51.578;7.306;2023-08-01T14:55:55;3.72;;;0.93;;
27039;SDS011;14589;51.578;7.306;2023-08-01T14:58:28;4.13;;;0.95;;
27039;SDS011;14589;51.578;7.306;2023-08-01T15:00:58;5.07;;;1.13;;
27039;SDS011;14589;51.578;7.306;2023-08-01T15:03:29;8.07;;;2.80;;
27039;SDS011;14589;51.578;7.306;2023-08-01T15:06:09;8.38;;;5.03;;
27039;SDS011;14589;51.578;7.306;2023-08-01T15:08:39;5.78;;;2.85;;
27039;SDS011;14589;51.578;7.306;2023-08-01T15:11:10;8.10;;;2.67;;
27039;SDS011;14589;51.578;7.306;2023-08-01T15:13:40;3.45;;;1.67;;
27039;SDS011;14589;51.578;7.306;2023-08-01T15:16:11;4.40;;;2.42;;
27039;SDS011;14589;51.578;7.306;2023-08-01T15:18:41;3.85;;;1.73;;
27039;SDS011;14589;51.578;7.306;2023-08-01T15:21:12;4.63;;;0.77;;